Time;durP1;ratioP1;P1;durP2;ratioP2;P2;SDS_P1;SDS_P2;PMS_P1;PMS_P2;Temp;Humidity;BMP_temperature;BMP_pressure;BME280_temperature;BME280_humidity;BME280_pressure;Samples;Min_cycle;Max_cycle;Signal;HPM_P1;HPM_P2
2021/10/20 00:00:57;;;;;;;2.95;2.75;;;11.50;99.90;;;;;;5018671;28;20051;-82
2021/10/20 00:03:25;;;;;;;3.15;2.92;;;11.50;99.90;;;;;;5035171;28;20095;-84
2021/10/20 00:05:52;;;;;;;3.42;3.13;;;11.60;99.90;;;;;;5035402;28;20037;-84
2021/10/20 00:08:20;;;;;;;3.67;3.38;;;11.50;99.90;;;;;;5034831;28;20120;-84
2021/10/20 00:10:47;;;;;;;3.53;3.22;;;11.50;99.90;;;;;;5034827;28;20064;-85
2021/10/20 00:13:14;;;;;;;4.22;3.90;;;11.60;99.90;;;;;;5034582;28;20201;-80
2021/10/20 00:15:42;;;;;;;3.20;3.00;;;11.60;99.90;;;;;;5034688;28;20056;-82
2021/10/20 00:18:09;;;;;;;2.95;2.75;;;11.50;99.90;;;;;;5052427;28;20041;-83
2021/10/20 00:20:38;;;;;;;3.40;3.10;;;11.40;99.90;;;;;;5034864;28;20400;-81
2021/10/20 00:23:06;;;;;;;4.82;4.35;;;11.30;99.90;;;;;;5034463;28;20457;-82
2021/10/20 00:25:33;;;;;;;7.35;6.68;;;11.20;99.90;;;;;;5034883;28;20056;-81
2021/10/20 00:28:00;;;;;;;5.68;3.97;;;11.10;99.90;;;;;;5034417;28;20057;-80
2021/10/20 00:30:28;;;;;;;4.03;3.72;;;11.10;99.90;;;;;;5018581;28;20049;-82
2021/10/20 00:32:55;;;;;;;4.50;3.55;;;10.90;99.90;;;;;;5035263;28;20377;-88
2021/10/20 00:35:23;;;;;;;4.28;3.97;;;11.00;99.90;;;;;;5053161;28;20041;-89
2021/10/20 00:37:50;;;;;;;5.15;4.65;;;10.90;99.90;;;;;;5053089;28;20055;-86
2021/10/20 00:40:18;;;;;;;3.58;3.28;;;10.90;99.90;;;;;;5035840;28;20045;-82
2021/10/20 00:42:46;;;;;;;3.70;3.40;;;11.00;99.90;;;;;;5053788;28;20048;-89
2021/10/20 00:45:14;;;;;;;3.85;3.55;;;11.10;99.90;;;;;;5035884;28;20049;-80
2021/10/20 00:47:41;;;;;;;3.22;3.00;;;11.10;99.90;;;;;;5035615;28;20381;-87
2021/10/20 00:50:11;;;;;;;3.80;3.50;;;11.20;99.90;;;;;;5052453;28;20411;-88
2021/10/20 00:52:39;;;;;;;3.15;2.95;;;11.10;99.90;;;;;;5036167;28;20131;-88
2021/10/20 00:55:07;;;;;;;5.18;3.88;;;11.10;99.90;;;;;;5053306;28;20048;-82
2021/10/20 00:57:35;;;;;;;3.40;3.10;;;11.00;99.90;;;;;;5018597;28;20475;-84
2021/10/20 01:00:06;;;;;;;4.68;4.28;;;11.00;99.90;;;;;;5018386;28;20428;-84
2021/10/20 01:02:35;;;;;;;3.33;3.10;;;11.00;99.90;;;;;;5053090;28;20047;-80
2021/10/20 01:05:04;;;;;;;10.80;6.50;;;11.00;99.90;;;;;;5034918;28;20047;-86
2021/10/20 01:07:31;;;;;;;4.13;3.72;;;11.00;99.90;;;;;;5018139;28;20044;-84
2021/10/20 01:09:59;;;;;;;3.80;3.50;;;11.10;99.90;;;;;;5018040;28;20040;-82
2021/10/20 01:12:27;;;;;;;3.95;3.63;;;11.10;99.90;;;;;;5034917;28;20041;-81
2021/10/20 01:14:55;;;;;;;3.95;3.65;;;11.00;99.90;;;;;;5035342;28;20080;-81
2021/10/20 01:17:22;;;;;;;3.40;3.10;;;11.00;99.90;;;;;;5035599;28;20044;-91
2021/10/20 01:19:50;;;;;;;3.00;2.80;;;11.00;99.90;;;;;;5052370;28;20435;-82
2021/10/20 01:22:17;;;;;;;3.55;3.25;;;10.90;99.90;;;;;;5053050;28;20037;-80
2021/10/20 01:24:45;;;;;;;3.50;3.20;;;10.70;99.90;;;;;;5035472;28;20090;-86
2021/10/20 01:27:12;;;;;;;6.20;5.18;;;10.60;99.90;;;;;;5052212;28;20437;-79
2021/10/20 01:29:40;;;;;;;5.32;4.65;;;10.70;99.90;;;;;;5018242;28;20127;-91
2021/10/20 01:32:07;;;;;;;4.05;3.75;;;10.50;99.90;;;;;;5034474;28;20048;-81
2021/10/20 01:34:35;;;;;;;4.68;4.28;;;10.40;99.90;;;;;;5034577;28;20045;-80
2021/10/20 01:37:05;;;;;;;3.90;3.60;;;10.40;99.90;;;;;;5052532;28;20044;-88
2021/10/20 01:39:33;;;;;;;3.30;3.05;;;10.50;99.90;;;;;;5036037;28;20041;-94
2021/10/20 01:42:01;;;;;;;4.15;3.85;;;10.40;99.90;;;;;;5034979;28;20047;-85
2021/10/20 01:44:29;;;;;;;5.65;5.15;;;10.40;99.90;;;;;;5052614;28;20047;-82
2021/10/20 01:46:57;;;;;;;3.65;3.35;;;10.40;99.90;;;;;;5034597;28;20364;-85
2021/10/20 01:49:24;;;;;;;3.60;3.30;;;10.30;99.90;;;;;;5017844;28;20037;-87
2021/10/20 01:51:52;;;;;;;3.13;2.92;;;10.30;99.90;;;;;;5034266;28;20106;-85
2021/10/20 01:54:20;;;;;;;3.50;3.20;;;10.10;99.90;;;;;;5034218;28;20092;-92
2021/10/20 01:56:48;;;;;;;4.93;4.43;;;10.10;99.90;;;;;;5034773;28;20156;-81
2021/10/20 01:59:16;;;;;;;5.15;4.65;;;10.20;99.90;;;;;;5052160;28;20041;-93
2021/10/20 02:01:44;;;;;;;4.18;3.72;;;10.30;99.90;;;;;;5055543;28;20041;-85
2021/10/20 02:04:14;;;;;;;3.50;3.20;;;10.40;99.90;;;;;;5021945;28;20467;-85
2021/10/20 02:06:43;;;;;;;4.32;4.03;;;10.40;99.90;;;;;;5038270;28;20044;-89
2021/10/20 02:09:11;;;;;;;3.90;3.60;;;10.30;99.90;;;;;;5037647;28;20044;-86
2021/10/20 02:11:41;;;;;;;3.50;3.20;;;10.30;99.90;;;;;;5037662;28;20101;-85
2021/10/20 02:14:10;;;;;;;3.40;3.10;;;10.40;99.90;;;;;;5037577;28;20453;-85
2021/10/20 02:16:38;;;;;;;4.78;4.40;;;10.40;99.90;;;;;;5055258;28;20400;-84
2021/10/20 02:19:06;;;;;;;3.08;2.88;;;10.30;99.90;;;;;;5037676;28;20037;-80
2021/10/20 02:21:33;;;;;;;3.00;2.80;;;10.20;99.90;;;;;;5037422;28;20435;-90
2021/10/20 02:24:00;;;;;;;5.25;4.80;;;10.20;99.90;;;;;;5055546;28;20178;-81
2021/10/20 02:26:28;;;;;;;3.33;3.05;;;10.20;99.90;;;;;;5021070;28;20055;-87
2021/10/20 02:28:55;;;;;;;3.00;2.80;;;10.30;99.90;;;;;;5037064;28;20036;-86
2021/10/20 02:31:22;;;;;;;2.90;2.70;;;10.30;99.90;;;;;;5037563;28;20045;-81
2021/10/20 02:33:50;;;;;;;3.50;3.20;;;10.30;99.90;;;;;;5037502;28;20428;-87
2021/10/20 02:36:17;;;;;;;3.25;2.95;;;10.20;99.90;;;;;;5037773;28;20165;-86
2021/10/20 02:38:44;;;;;;;3.78;3.47;;;10.00;99.90;;;;;;5037823;28;20037;-85
2021/10/20 02:41:12;;;;;;;3.75;3.45;;;10.00;99.90;;;;;;5037914;28;20049;-88
2021/10/20 02:43:39;;;;;;;4.63;3.47;;;9.90;99.90;;;;;;5055348;28;20041;-84
2021/10/20 02:46:07;;;;;;;4.72;4.32;;;9.90;99.90;;;;;;5054893;28;20041;-86
2021/10/20 02:48:35;;;;;;;3.20;3.00;;;9.90;99.90;;;;;;5037002;28;20037;-89
2021/10/20 02:51:04;;;;;;;4.28;3.97;;;9.80;99.90;;;;;;5054510;28;20119;-84
2021/10/20 02:53:31;;;;;;;3.75;3.45;;;9.80;99.90;;;;;;5054362;28;20037;-85
2021/10/20 02:55:58;;;;;;;3.42;3.13;;;9.80;99.90;;;;;;5037505;28;20377;-89
2021/10/20 02:58:26;;;;;;;4.22;3.90;;;9.80;99.90;;;;;;5020638;28;20156;-85
2021/10/20 03:00:54;;;;;;;4.45;4.07;;;9.80;99.90;;;;;;5037163;28;20080;-86
2021/10/20 03:03:22;;;;;;;3.60;3.33;;;9.60;99.90;;;;;;5036767;28;20049;-88
2021/10/20 03:05:49;;;;;;;3.05;2.85;;;9.60;99.90;;;;;;5037084;28;20071;-84
2021/10/20 03:08:16;;;;;;;4.03;3.72;;;9.60;99.90;;;;;;5054038;28;20041;-86
2021/10/20 03:10:44;;;;;;;3.38;3.08;;;9.60;99.90;;;;;;5053626;28;20040;-83
2021/10/20 03:13:11;;;;;;;5.05;4.65;;;9.50;99.90;;;;;;5053147;28;20032;-85
2021/10/20 03:15:39;;;;;;;3.78;3.47;;;9.30;99.90;;;;;;5053438;28;20075;-83
2021/10/20 03:18:10;;;;;;;5.13;4.70;;;9.30;99.90;;;;;;5053369;28;20393;-83
2021/10/20 03:20:37;;;;;;;4.80;4.43;;;9.30;99.90;;;;;;5053844;28;20079;-84
2021/10/20 03:23:04;;;;;;;3.38;3.08;;;9.40;99.90;;;;;;5035860;28;20045;-86
2021/10/20 03:25:32;;;;;;;3.88;3.58;;;9.40;99.90;;;;;;5053806;28;20120;-86
2021/10/20 03:27:59;;;;;;;3.50;3.20;;;9.30;99.90;;;;;;5036561;28;20051;-88
2021/10/20 03:30:26;;;;;;;4.00;3.70;;;9.30;99.90;;;;;;5036647;28;20057;-85
2021/10/20 03:32:53;;;;;;;4.22;3.92;;;9.30;99.90;;;;;;5020672;28;20057;-86
2021/10/20 03:35:21;;;;;;;3.50;3.20;;;9.30;99.90;;;;;;5037074;28;20052;-90
2021/10/20 03:37:48;;;;;;;4.05;3.75;;;9.30;99.90;;;;;;5036901;28;20440;-88
2021/10/20 03:40:16;;;;;;;4.32;4.03;;;9.30;99.90;;;;;;5037383;28;20052;-91
2021/10/20 03:42:44;;;;;;;3.20;3.00;;;9.30;99.90;;;;;;5053644;28;20042;-85
2021/10/20 03:45:12;;;;;;;3.97;3.67;;;9.30;99.90;;;;;;5053505;28;20188;-84
2021/10/20 03:47:40;;;;;;;5.45;5.05;;;9.30;99.90;;;;;;5035680;28;20053;-83
2021/10/20 03:50:08;;;;;;;4.10;3.80;;;9.30;99.90;;;;;;5053914;28;20369;-86
2021/10/20 03:52:36;;;;;;;3.65;3.35;;;9.40;99.90;;;;;;5053292;28;20132;-84
2021/10/20 03:55:05;;;;;;;8.07;4.25;;;9.30;99.90;;;;;;5019410;28;20033;-87
2021/10/20 03:57:37;;;;;;;3.55;3.25;;;9.10;99.90;;;;;;5035925;28;20407;-87
2021/10/20 04:00:07;;;;;;;3.85;3.55;;;9.20;99.90;;;;;;5054050;28;20055;-86
2021/10/20 04:02:36;;;;;;;3.47;3.17;;;9.10;99.90;;;;;;5020048;28;20447;-88
2021/10/20 04:05:04;;;;;;;3.72;3.42;;;9.00;99.90;;;;;;5036582;28;20045;-86
2021/10/20 04:07:31;;;;;;;4.40;3.95;;;9.10;99.90;;;;;;5035077;28;20044;-90
2021/10/20 04:09:58;;;;;;;3.67;3.38;;;9.10;99.90;;;;;;5027817;28;20407;-86
2021/10/20 04:12:25;;;;;;;5.43;5.03;;;9.30;99.90;;;;;;5053163;28;20041;-82
2021/10/20 04:14:52;;;;;;;3.40;3.10;;;9.50;99.90;;;;;;5035500;28;20419;-84
2021/10/20 04:17:20;;;;;;;5.13;4.60;;;9.50;99.90;;;;;;5034938;28;20051;-85
2021/10/20 04:19:47;;;;;;;3.53;3.22;;;9.50;99.90;;;;;;5035099;28;20044;-84
2021/10/20 04:22:14;;;;;;;3.60;3.30;;;9.40;99.90;;;;;;5034687;28;20037;-85
2021/10/20 04:24:41;;;;;;;5.47;5.07;;;9.40;99.90;;;;;;5051805;28;20041;-84
2021/10/20 04:27:08;;;;;;;4.43;4.05;;;9.40;99.90;;;;;;5051834;28;20053;-84
2021/10/20 04:29:36;;;;;;;4.43;4.03;;;9.20;99.90;;;;;;5052561;28;20421;-84
2021/10/20 04:32:03;;;;;;;4.03;3.72;;;9.10;99.90;;;;;;5035061;28;20045;-83
2021/10/20 04:34:31;;;;;;;34.50;5.85;;;9.10;99.90;;;;;;5052174;28;20044;-80
2021/10/20 04:36:58;;;;;;;4.60;4.30;;;9.00;99.90;;;;;;5027201;28;20049;-85
2021/10/20 04:39:25;;;;;;;4.57;4.18;;;9.00;99.90;;;;;;5034665;28;20041;-82
2021/10/20 04:41:52;;;;;;;3.72;3.42;;;9.10;99.90;;;;;;5033815;28;20145;-87
2021/10/20 04:44:20;;;;;;;4.63;3.97;;;8.90;99.90;;;;;;5034454;28;20045;-83
2021/10/20 04:46:47;;;;;;;4.45;4.07;;;8.80;99.90;;;;;;5034355;28;20057;-82
2021/10/20 04:49:14;;;;;;;4.88;4.47;;;8.70;99.90;;;;;;5033780;28;20079;-83
2021/10/20 04:51:41;;;;;;;3.80;3.50;;;8.80;99.90;;;;;;5034230;28;20047;-84
2021/10/20 04:54:10;;;;;;;4.13;3.83;;;8.70;99.90;;;;;;5034090;28;20047;-82
2021/10/20 04:56:38;;;;;;;5.05;4.65;;;8.60;99.90;;;;;;5034627;28;20100;-83
2021/10/20 04:59:05;;;;;;;3.80;3.50;;;8.70;99.90;;;;;;5035387;28;20048;-89
2021/10/20 05:01:32;;;;;;;4.18;3.88;;;8.80;99.90;;;;;;5035897;28;20044;-83
2021/10/20 05:04:00;;;;;;;3.50;3.20;;;9.00;99.90;;;;;;5044343;28;20041;-82
2021/10/20 05:06:28;;;;;;;3.63;3.33;;;9.10;99.90;;;;;;5035764;28;20389;-85
2021/10/20 05:08:55;;;;;;;4.93;4.43;;;9.20;99.90;;;;;;5018995;28;20044;-82
2021/10/20 05:11:23;;;;;;;6.53;5.82;;;9.20;99.90;;;;;;5019817;28;20087;-87
2021/10/20 05:13:50;;;;;;;4.82;4.45;;;9.10;99.90;;;;;;5020980;28;20049;-92
2021/10/20 05:16:17;;;;;;;7.15;6.57;;;9.30;99.90;;;;;;5055117;28;20064;-91
2021/10/20 05:18:47;;;;;;;8.60;7.85;;;9.50;99.90;;;;;;5033314;28;20061;-86
2021/10/20 05:21:18;;;;;;;8.07;4.88;;;9.30;99.90;;;;;;5033367;28;20052;-83
2021/10/20 05:23:49;;;;;;;3.67;3.38;;;9.20;99.90;;;;;;5015968;28;20057;-84
2021/10/20 05:26:18;;;;;;;3.78;3.47;;;9.00;99.90;;;;;;5050165;28;20048;-80
2021/10/20 05:28:45;;;;;;;3.45;3.15;;;8.90;99.90;;;;;;5031570;28;20129;-86
2021/10/20 05:31:13;;;;;;;3.90;3.60;;;9.00;99.90;;;;;;5050615;28;20045;-82
2021/10/20 05:33:41;;;;;;;3.50;3.20;;;9.10;99.90;;;;;;5050654;28;20029;-82
2021/10/20 05:36:09;;;;;;;4.05;3.75;;;9.10;99.90;;;;;;5017160;28;20057;-88
2021/10/20 05:38:37;;;;;;;3.75;3.40;;;9.30;99.90;;;;;;5033716;28;20150;-84
2021/10/20 05:41:07;;;;;;;4.10;3.80;;;9.40;99.90;;;;;;5016894;28;20049;-87
2021/10/20 05:43:51;;;;;;;3.83;3.50;;;9.50;99.90;;;;;;5016570;28;20134;-90
2021/10/20 05:46:33;;;;;;;5.30;4.90;;;9.60;99.90;;;;;;5032974;28;20053;-83
2021/10/20 05:49:00;;;;;;;5.38;4.97;;;9.80;99.90;;;;;;5031942;28;20057;-84
2021/10/20 05:51:27;;;;;;;3.95;3.65;;;9.90;99.90;;;;;;5033120;28;20105;-83
2021/10/20 05:53:55;;;;;;;3.60;3.30;;;10.00;99.90;;;;;;5015999;28;20448;-84
2021/10/20 05:56:26;;;;;;;4.22;3.92;;;10.00;99.90;;;;;;5031953;28;20041;-89
2021/10/20 05:58:53;;;;;;;4.60;4.13;;;10.00;99.90;;;;;;5032381;28;20055;-83
2021/10/20 06:01:23;;;;;;;4.68;3.58;;;10.00;99.90;;;;;;5032111;28;20057;-83
2021/10/20 06:03:50;;;;;;;5.03;4.45;;;10.00;99.90;;;;;;5031502;28;20130;-83
2021/10/20 06:06:18;;;;;;;4.15;3.85;;;9.90;99.90;;;;;;5032450;28;20040;-87
2021/10/20 06:08:45;;;;;;;3.28;3.08;;;9.90;99.90;;;;;;5050891;28;20399;-84
2021/10/20 06:11:13;;;;;;;5.20;4.80;;;9.90;99.90;;;;;;5033319;28;20136;-85
2021/10/20 06:13:40;;;;;;;4.15;3.85;;;10.00;99.90;;;;;;5016457;28;20045;-85
2021/10/20 06:16:07;;;;;;;3.80;3.50;;;10.00;99.90;;;;;;5051061;28;20631;-83
2021/10/20 06:18:34;;;;;;;4.10;3.80;;;10.00;99.90;;;;;;5049427;28;20056;-85
2021/10/20 06:21:02;;;;;;;4.45;4.15;;;10.10;99.90;;;;;;5033094;28;20425;-82
2021/10/20 06:23:30;;;;;;;4.13;3.72;;;10.20;99.90;;;;;;5016385;28;20072;-86
2021/10/20 06:25:57;;;;;;;4.50;4.10;;;10.20;99.90;;;;;;5032872;28;20056;-85
2021/10/20 06:28:25;;;;;;;3.47;3.17;;;10.30;99.90;;;;;;5050318;28;20053;-82
2021/10/20 06:30:52;;;;;;;4.88;4.40;;;10.30;99.90;;;;;;5033244;28;20050;-83
2021/10/20 06:33:20;;;;;;;4.03;3.72;;;10.50;99.90;;;;;;5016749;28;20132;-80
2021/10/20 06:35:47;;;;;;;4.65;4.25;;;10.60;99.90;;;;;;5028619;28;20041;-80
2021/10/20 06:38:14;;;;;;;3.28;3.03;;;10.50;99.90;;;;;;5032437;28;20392;-82
2021/10/20 06:40:42;;;;;;;4.15;3.85;;;10.50;99.90;;;;;;5027800;28;20052;-82
2021/10/20 06:43:09;;;;;;;4.30;4.00;;;10.60;99.90;;;;;;5016280;28;20131;-85
2021/10/20 06:45:37;;;;;;;4.65;4.25;;;10.60;99.90;;;;;;5016940;28;20077;-88
2021/10/20 06:53:09;;;;;;;4.28;3.97;;;10.70;99.90;;;;;;4934642;29;20043;-88
2021/10/20 06:55:36;;;;;;;3.50;3.20;;;10.40;99.90;;;;;;4898995;28;20192;-85
2021/10/20 06:58:11;;;;;;;5.47;4.97;;;10.60;99.90;;;;;;5007457;28;20157;-87
2021/10/20 07:00:38;;;;;;;41.72;5.40;;;10.80;99.90;;;;;;5021215;28;20515;-83
2021/10/20 07:03:06;;;;;;;5.95;4.88;;;10.80;99.90;;;;;;5024090;28;20049;-81
2021/10/20 07:05:36;;;;;;;4.90;4.50;;;10.80;99.90;;;;;;5034043;28;20045;-83
2021/10/20 07:08:04;;;;;;;3.33;3.03;;;10.90;99.90;;;;;;5055496;28;20068;-84
2021/10/20 07:10:31;;;;;;;3.92;3.63;;;11.00;99.90;;;;;;5046783;28;20039;-82
2021/10/20 07:12:58;;;;;;;4.25;3.85;;;11.20;99.90;;;;;;5035172;28;20073;-81
2021/10/20 07:15:32;;;;;;;2.90;2.70;;;11.20;99.90;;;;;;5034964;28;20041;-82
2021/10/20 07:17:59;;;;;;;3.83;3.53;;;11.10;99.90;;;;;;5019534;28;20049;-83
2021/10/20 07:20:27;;;;;;;3.08;2.88;;;11.10;99.90;;;;;;5035768;28;20102;-83
2021/10/20 07:22:55;;;;;;;5.13;4.68;;;11.30;99.90;;;;;;5035561;28;20128;-80
2021/10/20 07:25:22;;;;;;;3.08;2.88;;;11.60;99.90;;;;;;5053712;28;20400;-82
2021/10/20 07:27:50;;;;;;;3.60;3.30;;;11.80;99.90;;;;;;5053147;28;20471;-80
2021/10/20 07:30:18;;;;;;;3.40;3.13;;;11.80;99.90;;;;;;5018789;28;20055;-84
2021/10/20 07:32:48;;;;;;;;;;;12.10;99.90;;;;;;5053917;28;20044;-85
2021/10/20 07:35:17;;;;;;;12.25;5.55;;;12.30;99.90;;;;;;5019439;28;20322;-88
2021/10/20 07:37:48;;;;;;;5.97;3.40;;;12.70;99.90;;;;;;5018966;28;20413;-87
2021/10/20 07:40:16;;;;;;;2.70;2.50;;;12.90;99.90;;;;;;5036188;28;20056;-88
2021/10/20 07:42:45;;;;;;;6.85;4.32;;;12.70;99.90;;;;;;5036226;28;20472;-83
2021/10/20 07:45:18;;;;;;;3.65;3.38;;;12.60;99.90;;;;;;5017879;28;20553;-84
2021/10/20 07:47:51;;;;;;;4.63;4.22;;;12.80;99.90;;;;;;5018104;28;20144;-85
2021/10/20 07:50:20;;;;;;;3.25;2.97;;;12.80;99.90;;;;;;5017885;28;20169;-81
2021/10/20 07:52:48;;;;;;;15.88;4.45;;;13.00;99.90;;;;;;5018732;28;20110;-84
2021/10/20 07:55:18;;;;;;;4.60;3.95;;;13.50;99.90;;;;;;5017921;28;20064;-84
2021/10/20 07:57:52;;;;;;;3.58;3.28;;;13.30;99.90;;;;;;5034320;28;20036;-82
2021/10/20 08:00:21;;;;;;;2.70;2.50;;;13.20;99.90;;;;;;5033076;28;20049;-84
2021/10/20 08:02:49;;;;;;;2.95;2.47;;;13.30;99.90;;;;;;5017008;28;20072;-85
2021/10/20 08:05:17;;;;;;;3.88;3.45;;;13.20;99.90;;;;;;5018351;28;20053;-84
2021/10/20 08:07:47;;;;;;;2.70;2.50;;;13.60;99.90;;;;;;5018084;28;20110;-83
2021/10/20 08:10:23;;;;;;;10.85;3.50;;;13.70;99.90;;;;;;5017125;28;20037;-84
2021/10/20 08:12:54;;;;;;;2.70;2.50;;;13.50;99.90;;;;;;5017529;28;20045;-83
2021/10/20 08:15:23;;;;;;;2.63;2.42;;;13.60;99.90;;;;;;5033798;28;20075;-81
2021/10/20 08:17:51;;;;;;;6.32;4.18;;;13.70;99.90;;;;;;5051485;28;20061;-86
2021/10/20 08:20:30;;;;;;;3.13;2.92;;;14.00;99.90;;;;;;5030494;28;20136;-87
2021/10/20 08:22:59;;;;;;;3.55;3.25;;;13.90;99.90;;;;;;5033092;28;20072;-82
2021/10/20 08:25:27;;;;;;;17.30;3.38;;;14.00;99.90;;;;;;5011302;28;20041;-80
2021/10/20 08:27:54;;;;;;;2.80;2.40;;;14.00;99.90;;;;;;5051509;28;20085;-81
2021/10/20 08:30:25;;;;;;;2.28;2.13;;;14.40;99.90;;;;;;5060451;28;20064;-84
2021/10/20 08:32:55;;;;;;;3.63;3.33;;;14.60;99.90;;;;;;5050815;28;20431;-86
2021/10/20 08:39:20;;;;;;;3.75;3.38;;;14.50;99.90;;;;;;4993554;28;20452;-84
2021/10/20 08:42:01;;;;;;;3.13;2.90;;;15.20;99.90;;;;;;5016660;28;20056;-84
2021/10/20 08:44:32;;;;;;;5.03;4.53;;;15.50;99.90;;;;;;5014943;28;20147;-81
2021/10/20 08:46:59;;;;;;;3.05;2.75;;;15.50;99.90;;;;;;5042309;28;20131;-87
2021/10/20 08:49:33;;;;;;;2.72;2.53;;;15.70;99.90;;;;;;5026547;28;20052;-84
2021/10/20 08:52:00;;;;;;;;;;;15.60;99.90;;;;;;5021724;28;20052;-83
2021/10/20 08:54:37;;;;;;;3.67;3.38;;;16.00;99.90;;;;;;5020053;28;19972;-85
2021/10/20 08:57:07;;;;;;;2.80;2.60;;;15.80;99.90;;;;;;5052518;28;20040;-87
2021/10/20 08:59:37;;;;;;;3.70;3.38;;;16.00;99.90;;;;;;5018505;28;20143;-86
2021/10/20 09:02:40;;;;;;;2.97;2.35;;;15.70;99.90;;;;;;5034793;28;20065;-85
2021/10/20 09:05:50;;;;;;;3.45;2.47;;;16.20;99.90;;;;;;5034212;28;20411;-87
2021/10/20 09:08:24;;;;;;;2.95;2.75;;;16.50;99.90;;;;;;5029504;28;20037;-88
2021/10/20 09:10:54;;;;;;;6.78;3.53;;;16.60;99.90;;;;;;5046608;28;20064;-83
2021/10/20 09:13:25;;;;;;;1.80;1.70;;;16.30;99.90;;;;;;5028198;28;20136;-87
2021/10/20 09:16:01;;;;;;;2.95;2.38;;;16.50;99.90;;;;;;5053163;28;20044;-88
2021/10/20 09:18:43;;;;;;;1.83;1.73;;;16.90;99.90;;;;;;5038401;28;20523;-89
2021/10/20 09:21:21;;;;;;;2.40;2.20;;;17.00;99.90;;;;;;5054333;28;20049;-83
2021/10/20 09:28:15;;;;;;;2.03;1.92;;;16.90;99.90;;;;;;5063946;28;19932;-92
2021/10/20 09:34:52;;;;;;;1.52;1.42;;;17.10;99.90;;;;;;4993815;28;20057;-87
2021/10/20 09:37:30;;;;;;;2.85;2.35;;;18.50;99.90;;;;;;4989762;28;20065;-85
2021/10/20 09:40:16;;;;;;;1.88;1.77;;;18.30;99.10;;;;;;4990221;28;20065;-86
2021/10/20 09:42:49;;;;;;;1.95;1.85;;;18.60;98.50;;;;;;4958988;28;20038;-85
2021/10/20 09:45:26;;;;;;;1.25;1.15;;;19.00;98.80;;;;;;4975693;28;20054;-87
2021/10/20 09:48:26;;;;;;;1.65;1.55;;;19.60;98.60;;;;;;4976909;28;20048;-91
2021/10/20 09:51:16;;;;;;;1.20;1.10;;;19.90;96.90;;;;;;4980373;28;20109;-93
2021/10/20 09:53:46;;;;;;;1.98;1.88;;;19.70;96.50;;;;;;4981705;28;20042;-91
2021/10/20 09:56:40;;;;;;;1.75;1.65;;;19.60;96.40;;;;;;5011457;28;20214;-88
2021/10/20 09:59:09;;;;;;;4.82;2.10;;;19.20;95.70;;;;;;4983862;28;20042;-90
2021/10/20 10:01:37;;;;;;;1.88;1.77;;;19.20;96.10;;;;;;5018086;28;20042;-91
2021/10/20 10:04:07;;;;;;;2.75;2.55;;;19.60;95.00;;;;;;5016350;28;20089;-90
2021/10/20 10:09:59;;;;;;;2.33;2.13;;;19.50;94.00;;;;;;5018471;28;20156;-90
2021/10/20 10:12:57;;;;;;;1.55;1.45;;;19.50;93.40;;;;;;4981117;28;20037;-95
2021/10/20 10:15:26;;;;;;;1.33;1.23;;;19.70;93.10;;;;;;4992151;28;20104;-87
2021/10/20 10:24:34;;;;;;;1.88;1.73;;;19.40;92.80;;;;;;4981165;28;20154;-93
2021/10/20 10:27:10;;;;;;;1.95;1.40;;;20.30;91.20;;;;;;4967831;28;20044;-93
2021/10/20 10:30:00;;;;;;;3.97;1.70;;;19.90;90.40;;;;;;4964160;28;20052;-90
2021/10/20 10:32:57;;;;;;;3.75;3.38;;;19.80;91.30;;;;;;4954334;28;20043;-91
2021/10/20 10:35:35;;;;;;;1.60;1.50;;;19.80;91.10;;;;;;4959362;28;20074;-84
2021/10/20 10:38:52;;;;;;;1.60;1.50;;;19.90;90.30;;;;;;4975318;28;20043;-86
2021/10/20 10:41:33;;;;;;;1.27;1.20;;;20.10;88.90;;;;;;4996547;28;20033;-86
2021/10/20 10:44:09;;;;;;;1.63;1.52;;;19.80;89.40;;;;;;4995646;28;20065;-86
2021/10/20 10:46:51;;;;;;;2.67;1.73;;;20.20;89.70;;;;;;4954473;28;20039;-86
2021/10/20 10:49:38;;;;;;;0.90;0.90;;;20.60;88.50;;;;;;4958218;28;20498;-86
2021/10/20 10:52:21;;;;;;;2.58;1.15;;;20.00;87.20;;;;;;4965685;28;20381;-87
2021/10/20 10:54:54;;;;;;;1.25;1.15;;;20.30;88.10;;;;;;4964219;28;20422;-86
2021/10/20 10:57:21;;;;;;;1.20;1.10;;;20.90;85.40;;;;;;4977305;28;20065;-84
2021/10/20 11:00:18;;;;;;;0.90;0.90;;;20.80;85.10;;;;;;4978938;28;20044;-87
2021/10/20 11:02:57;;;;;;;1.73;1.13;;;21.30;86.30;;;;;;4976390;28;20034;-84
2021/10/20 11:05:26;;;;;;;5.90;2.08;;;21.30;82.90;;;;;;4962962;28;20047;-91
2021/10/20 11:08:01;;;;;;;0.90;0.90;;;22.00;81.50;;;;;;4961188;28;20176;-86
2021/10/20 11:10:37;;;;;;;1.48;1.38;;;21.80;79.00;;;;;;4993639;28;20038;-86
2021/10/20 11:13:05;;;;;;;1.38;1.27;;;21.90;78.50;;;;;;4940675;28;20363;-84
2021/10/20 11:15:36;;;;;;;1.10;1.00;;;21.40;76.10;;;;;;4972945;28;20043;-89
2021/10/20 11:18:05;;;;;;;1.05;1.00;;;21.60;76.90;;;;;;4948486;28;20049;-84
2021/10/20 11:20:36;;;;;;;1.20;1.10;;;21.20;77.90;;;;;;4972413;28;20608;-90
2021/10/20 11:23:21;;;;;;;1.05;1.02;;;21.50;77.90;;;;;;4970931;28;20417;-82
2021/10/20 11:25:49;;;;;;;1.80;1.40;;;22.30;78.10;;;;;;4956448;28;20447;-88
2021/10/20 11:28:17;;;;;;;1.58;1.23;;;21.80;75.70;;;;;;4956525;28;20046;-86
2021/10/20 11:33:43;;;;;;;2.45;2.28;;;21.90;77.10;;;;;;4977077;28;20450;-89
2021/10/20 11:36:25;;;;;;;1.40;1.17;;;22.30;74.10;;;;;;4962054;28;20156;-86
2021/10/20 11:39:05;;;;;;;1.23;1.10;;;22.70;74.00;;;;;;4994007;28;20280;-84
2021/10/20 11:42:02;;;;;;;2.72;2.22;;;22.90;73.40;;;;;;4994772;28;20043;-88
2021/10/20 11:49:14;;;;;;;1.17;1.08;;;22.40;74.70;;;;;;4995365;28;20045;-89
2021/10/20 11:51:51;;;;;;;1.50;1.40;;;22.30;72.40;;;;;;4976889;28;20050;-83
2021/10/20 11:54:26;;;;;;;1.00;0.95;;;22.30;70.50;;;;;;4977917;28;20093;-87
2021/10/20 12:00:07;;;;;;;2.17;1.80;;;22.30;71.00;;;;;;4359621;26;20130;-89
2021/10/20 12:02:43;;;;;;;0.70;0.70;;;22.60;70.40;;;;;;5093965;28;20040;-85
2021/10/20 12:05:10;;;;;;;0.77;0.77;;;22.20;71.90;;;;;;5060099;28;20040;-86
2021/10/20 12:07:39;;;;;;;1.27;1.15;;;22.10;71.40;;;;;;5076258;28;20463;-87
2021/10/20 12:11:02;;;;;;;1.02;0.95;;;22.70;71.30;;;;;;5077035;28;20044;-87
2021/10/20 12:13:34;;;;;;;1.38;1.27;;;23.50;70.20;;;;;;5056120;28;20048;-86
2021/10/20 12:16:15;;;;;;;1.42;1.33;;;23.40;70.40;;;;;;5055972;28;20445;-88
2021/10/20 12:18:58;;;;;;;1.08;0.98;;;23.10;68.80;;;;;;5054724;28;20052;-89
2021/10/20 12:21:45;;;;;;;1.25;1.13;;;23.10;69.40;;;;;;5038525;28;20147;-89
2021/10/20 12:24:16;;;;;;;2.35;2.15;;;23.80;68.20;;;;;;5039374;28;20044;-89
2021/10/20 12:26:50;;;;;;;1.52;1.42;;;25.80;65.50;;;;;;5038735;28;20048;-88
2021/10/20 12:29:19;;;;;;;1.10;1.00;;;27.70;62.90;;;;;;5054437;28;20097;-89
2021/10/20 12:31:47;;;;;;;0.70;0.70;;;29.80;58.10;;;;;;5038529;28;20103;-89
2021/10/20 12:34:19;;;;;;;1.85;1.23;;;30.90;55.10;;;;;;5055530;28;20048;-89
2021/10/20 12:36:48;;;;;;;1.30;1.05;;;30.80;53.60;;;;;;5039691;28;20131;-89
2021/10/20 12:39:18;;;;;;;1.40;1.30;;;31.60;52.00;;;;;;5039218;28;20045;-89
2021/10/20 12:41:47;;;;;;;6.22;1.92;;;32.10;50.40;;;;;;5039021;28;20495;-89
2021/10/20 12:44:45;;;;;;;0.77;0.77;;;33.10;49.50;;;;;;5038510;28;20056;-89
2021/10/20 12:47:19;;;;;;;1.17;1.08;;;31.80;48.10;;;;;;5054914;28;20044;-88
2021/10/20 12:50:09;;;;;;;1.67;1.52;;;32.40;48.40;;;;;;5054856;28;20041;-88
2021/10/20 12:52:38;;;;;;;1.85;1.40;;;31.80;47.20;;;;;;5037868;28;20056;-88
2021/10/20 12:55:08;;;;;;;1.15;1.05;;;28.60;49.80;;;;;;5038936;28;20040;-89
2021/10/20 12:57:49;;;;;;;0.80;0.80;;;27.70;52.40;;;;;;5025937;28;20106;-89
2021/10/20 13:00:26;;;;;;;4.07;1.42;;;27.50;53.90;;;;;;5038223;28;20079;-88
2021/10/20 13:03:01;;;;;;;1.33;1.20;;;26.90;54.40;;;;;;5038796;28;20143;-88
2021/10/20 13:05:28;;;;;;;5.68;2.40;;;27.40;54.80;;;;;;5055303;28;20090;-88
2021/10/20 13:08:09;;;;;;;;;;;26.70;55.20;;;;;;5040559;28;20060;-88
2021/10/20 13:10:51;;;;;;;0.85;0.85;;;27.10;54.60;;;;;;5039845;28;19968;-89
2021/10/20 13:13:31;;;;;;;1.33;1.20;;;27.60;54.50;;;;;;5075698;28;20044;-89
2021/10/20 13:15:59;;;;;;;1.20;0.93;;;28.40;53.70;;;;;;5058960;28;20060;-87
2021/10/20 13:18:29;;;;;;;1.10;1.02;;;28.30;53.20;;;;;;5075936;28;20043;-88
2021/10/20 13:21:41;;;;;;;1.00;0.90;;;26.90;53.90;;;;;;5060494;28;20082;-88
2021/10/20 13:24:14;;;;;;;1.13;0.55;;;26.20;55.10;;;;;;5058463;28;20047;-88
2021/10/20 13:26:45;;;;;;;0.55;0.55;;;25.20;56.00;;;;;;5074846;28;20036;-88
2021/10/20 13:29:12;;;;;;;;;;;24.80;57.10;;;;;;5058743;28;20052;-88
2021/10/20 13:31:39;;;;;;;1.35;1.25;;;24.20;57.40;;;;;;5058196;28;19966;-88
2021/10/20 13:34:13;;;;;;;0.85;0.85;;;24.90;57.80;;;;;;5058538;28;20570;-88
2021/10/20 13:37:06;;;;;;;2.80;1.70;;;25.00;58.30;;;;;;5059200;28;20080;-89
2021/10/20 13:39:37;;;;;;;0.88;0.88;;;24.80;58.20;;;;;;5075002;28;20068;-88
2021/10/20 13:42:05;;;;;;;0.70;0.70;;;23.60;58.50;;;;;;5057766;28;20062;-88
2021/10/20 13:44:33;;;;;;;0.98;0.93;;;23.50;59.10;;;;;;5075193;28;20094;-89
2021/10/20 13:47:01;;;;;;;0.75;0.75;;;23.70;59.40;;;;;;5058062;28;20048;-90
2021/10/20 13:49:48;;;;;;;1.20;1.10;;;23.60;59.50;;;;;;5060739;28;20407;-90